createdAt,value
2022-09-11T00:01:00.093Z,27.77
2022-09-11T00:03:28.117Z,28.27
2022-09-11T00:05:54.895Z,24.77
2022-09-11T00:08:21.989Z,26.17
2022-09-11T00:10:49.009Z,24.37
2022-09-11T00:13:23.573Z,24.93
2022-09-11T00:15:52.320Z,23.80
2022-09-11T00:18:23.884Z,24.50
2022-09-11T00:20:52.968Z,23.07
2022-09-11T00:23:20.870Z,22.00
2022-09-11T00:25:48.060Z,21.87
2022-09-11T00:28:20.581Z,22.20
2022-09-11T00:30:56.535Z,22.00
2022-09-11T00:33:23.162Z,21.43
2022-09-11T00:35:58.797Z,21.17
2022-09-11T00:38:28.199Z,21.20
2022-09-11T00:40:56.576Z,22.43
2022-09-11T00:43:23.296Z,22.47
2022-09-11T00:45:57.555Z,21.50
2022-09-11T00:48:26.775Z,20.80
2022-09-11T00:50:54.764Z,20.13
2022-09-11T00:53:25.067Z,21.27
2022-09-11T00:55:55.592Z,23.17
2022-09-11T00:58:27.938Z,23.50
2022-09-11T01:00:56.544Z,26.87
2022-09-11T01:03:25.542Z,28.07
2022-09-11T01:05:54.708Z,28.20
2022-09-11T01:08:22.754Z,28.60
2022-09-11T01:11:07.915Z,29.13
2022-09-11T01:13:59.332Z,32.50
2022-09-11T01:16:35.610Z,34.77
2022-09-11T01:19:37.197Z,31.27
2022-09-11T01:22:03.652Z,32.50
2022-09-11T01:24:53.385Z,32.87
2022-09-11T01:27:39.803Z,32.50
2022-09-11T01:30:11.913Z,34.00
2022-09-11T01:32:50.510Z,31.87
2022-09-11T01:35:44.236Z,31.73
2022-09-11T01:38:22.871Z,32.63
2022-09-11T01:41:07.859Z,33.53
2022-09-11T01:43:41.376Z,33.60
2022-09-11T01:46:09.235Z,34.53
2022-09-11T01:48:45.504Z,34.67
2022-09-11T01:51:18.427Z,33.13
2022-09-11T01:53:50.339Z,32.57
2022-09-11T01:56:30.117Z,31.53
2022-09-11T01:59:01.742Z,32.80
2022-09-11T02:01:32.661Z,32.07
2022-09-11T02:04:11.821Z,33.83
2022-09-11T02:06:50.449Z,34.10
2022-09-11T02:09:21.906Z,32.20
2022-09-11T02:11:51.895Z,32.67
2022-09-11T02:14:30.106Z,32.47
2022-09-11T02:17:15.460Z,34.13
2022-09-11T02:19:42.126Z,30.57
2022-09-11T02:22:08.881Z,30.63
2022-09-11T02:24:35.589Z,29.37
2022-09-11T02:27:05.970Z,30.20
2022-09-11T02:29:33.426Z,29.50
2022-09-11T02:32:01.320Z,29.30
2022-09-11T02:34:32.772Z,28.83
2022-09-11T02:37:21.306Z,29.53
2022-09-11T02:40:07.544Z,30.83
2022-09-11T02:42:43.614Z,31.73
2022-09-11T02:45:48.119Z,29.93
2022-09-11T02:48:30.011Z,28.73
2022-09-11T02:51:07.670Z,28.27
2022-09-11T02:53:52.598Z,28.73
2022-09-11T02:56:44.000Z,27.73
2022-09-11T02:59:24.511Z,24.27
2022-09-11T03:01:56.553Z,24.63
2022-09-11T03:04:24.752Z,23.27
2022-09-11T03:06:52.885Z,25.37
2022-09-11T03:09:20.364Z,23.77
2022-09-11T03:11:47.266Z,24.17
2022-09-11T03:14:14.461Z,23.17
2022-09-11T03:16:41.647Z,22.53
2022-09-11T03:19:08.523Z,21.73
2022-09-11T03:21:35.295Z,21.60
2022-09-11T03:24:02.552Z,19.93
2022-09-11T03:26:29.699Z,20.23
2022-09-11T03:28:56.291Z,19.20
2022-09-11T03:31:22.955Z,20.07
2022-09-11T03:33:49.600Z,19.57
2022-09-11T03:36:16.205Z,19.37
2022-09-11T03:38:42.698Z,19.07
2022-09-11T03:41:09.617Z,20.43
2022-09-11T03:43:36.192Z,21.13
2022-09-11T03:46:03.263Z,21.27
2022-09-11T03:48:29.828Z,23.43
2022-09-11T03:50:56.494Z,20.73
2022-09-11T03:53:23.035Z,26.23
2022-09-11T03:55:52.474Z,22.60
2022-09-11T03:58:19.479Z,22.87
2022-09-11T04:00:47.539Z,21.77
2022-09-11T04:03:17.958Z,22.13
2022-09-11T04:05:57.254Z,22.20
2022-09-11T04:08:23.777Z,22.60
2022-09-11T04:10:57.106Z,21.53
2022-09-11T04:13:32.165Z,20.77
2022-09-11T04:16:11.608Z,19.57
2022-09-11T04:18:39.843Z,19.37
2022-09-11T04:21:08.932Z,20.57
2022-09-11T04:23:36.247Z,21.90
2022-09-11T04:26:04.129Z,21.03
2022-09-11T04:28:31.680Z,21.43
2022-09-11T04:31:04.472Z,19.40
2022-09-11T04:33:31.236Z,20.17
2022-09-11T04:35:57.832Z,21.70
2022-09-11T04:38:24.754Z,21.20
2022-09-11T04:40:51.464Z,21.87
2022-09-11T04:43:18.015Z,22.40
2022-09-11T04:45:44.632Z,21.13
2022-09-11T04:48:11.159Z,20.37
2022-09-11T04:50:37.712Z,21.87
2022-09-11T04:53:04.407Z,21.57
2022-09-11T04:55:30.925Z,21.83
2022-09-11T04:57:57.430Z,20.57
2022-09-11T05:00:25.149Z,20.47
2022-09-11T05:02:54.584Z,20.07
2022-09-11T05:05:21.279Z,20.87
2022-09-11T05:07:50.816Z,18.23
2022-09-11T05:10:17.408Z,17.43
2022-09-11T05:12:43.929Z,18.67
2022-09-11T05:15:11.028Z,18.40
2022-09-11T05:17:39.019Z,17.53
2022-09-11T05:20:11.210Z,18.33
2022-09-11T05:22:38.369Z,18.50
2022-09-11T05:25:05.173Z,19.53
2022-09-11T05:27:31.677Z,18.40
2022-09-11T05:29:58.190Z,19.20
2022-09-11T05:32:24.664Z,17.83
2022-09-11T05:34:51.455Z,18.60
2022-09-11T05:37:17.984Z,19.37
2022-09-11T05:39:44.557Z,18.50
2022-09-11T05:42:11.831Z,19.17
2022-09-11T05:44:38.426Z,17.50
2022-09-11T05:47:05.105Z,18.20
2022-09-11T05:49:31.696Z,18.33
2022-09-11T05:51:58.193Z,16.60
2022-09-11T05:54:25.399Z,17.07
2022-09-11T05:56:51.914Z,16.53
2022-09-11T05:59:20.609Z,17.90
2022-09-11T06:01:47.984Z,15.83
2022-09-11T06:04:14.630Z,16.20
2022-09-11T06:06:41.218Z,15.13
2022-09-11T06:09:10.879Z,16.93
2022-09-11T06:11:37.376Z,16.10
2022-09-11T06:14:03.862Z,15.83
2022-09-11T06:16:31.723Z,16.33
2022-09-11T06:18:58.540Z,14.90
2022-09-11T06:21:26.847Z,15.83
2022-09-11T06:23:53.886Z,15.97
2022-09-11T06:26:23.176Z,16.37
2022-09-11T06:28:51.016Z,15.40
2022-09-11T06:31:20.799Z,16.93
2022-09-11T06:33:48.328Z,15.60
2022-09-11T06:36:17.137Z,14.80
2022-09-11T06:38:44.709Z,15.77
2022-09-11T06:41:14.877Z,16.40
2022-09-11T06:43:42.287Z,15.97
2022-09-11T06:46:14.614Z,16.70
2022-09-11T06:48:43.126Z,16.40
2022-09-11T06:51:18.175Z,17.13
2022-09-11T06:53:47.506Z,16.30
2022-09-11T06:56:17.844Z,16.33
2022-09-11T06:58:46.085Z,16.90
2022-09-11T07:01:18.497Z,16.10
2022-09-11T07:03:46.969Z,14.90
2022-09-11T07:06:15.554Z,14.87
2022-09-11T07:08:42.104Z,15.47
2022-09-11T07:11:10.058Z,14.73
2022-09-11T07:13:38.214Z,13.90
2022-09-11T07:16:08.161Z,15.30
2022-09-11T07:18:40.060Z,16.07
2022-09-11T07:21:11.651Z,14.70
2022-09-11T07:23:39.494Z,12.87
2022-09-11T07:26:08.954Z,12.53
2022-09-11T07:28:37.660Z,13.57
2022-09-11T07:31:18.715Z,12.70
2022-09-11T07:33:48.884Z,12.60
2022-09-11T07:36:23.872Z,12.53
2022-09-11T07:38:51.265Z,12.57
2022-09-11T07:41:21.480Z,11.13
2022-09-11T07:43:55.250Z,11.07
2022-09-11T07:46:22.341Z,12.20
2022-09-11T07:48:48.888Z,11.30
2022-09-11T07:51:17.365Z,11.73
2022-09-11T07:53:46.269Z,11.13
2022-09-11T07:56:18.522Z,11.50
2022-09-11T07:58:45.634Z,10.83
2022-09-11T08:01:20.586Z,11.00
2022-09-11T08:03:47.256Z,10.03
2022-09-11T08:06:21.424Z,11.00
2022-09-11T08:08:52.459Z,8.93
2022-09-11T08:11:19.795Z,10.07
2022-09-11T08:13:51.520Z,10.10
2022-09-11T08:16:19.672Z,8.40
2022-09-11T08:18:46.492Z,8.43
2022-09-11T08:21:13.345Z,8.27
2022-09-11T08:23:42.125Z,7.53
2022-09-11T08:26:23.693Z,7.70
2022-09-11T08:28:52.752Z,7.80
2022-09-11T08:31:22.084Z,7.73
2022-09-11T08:33:49.361Z,7.53
2022-09-11T08:36:15.988Z,7.13
2022-09-11T08:38:43.943Z,6.67
2022-09-11T08:41:11.222Z,6.90
2022-09-11T08:43:56.643Z,6.10
2022-09-11T08:46:33.847Z,6.50
2022-09-11T08:49:25.452Z,6.07
2022-09-11T08:51:55.173Z,5.73
2022-09-11T08:54:33.540Z,5.70
2022-09-11T08:57:38.726Z,5.47
2022-09-11T09:00:19.957Z,4.70
2022-09-11T09:03:07.863Z,5.20
2022-09-11T09:05:42.992Z,5.00
2022-09-11T09:08:35.118Z,4.50
2022-09-11T09:11:20.539Z,5.50
2022-09-11T09:13:56.114Z,5.37
2022-09-11T09:16:45.477Z,4.33
2022-09-11T09:19:20.211Z,3.97
2022-09-11T09:21:59.778Z,4.40
2022-09-11T09:24:30.970Z,5.60
2022-09-11T09:26:57.611Z,4.57
2022-09-11T09:29:30.561Z,4.20
2022-09-11T09:32:06.524Z,9.73
2022-09-11T09:34:37.461Z,8.17
2022-09-11T09:37:15.190Z,9.50
2022-09-11T09:39:42.119Z,13.03
2022-09-11T09:42:33.108Z,4.43
2022-09-11T09:45:14.556Z,3.93
2022-09-11T09:47:47.850Z,3.03
2022-09-11T09:50:28.555Z,3.97
2022-09-11T09:53:10.640Z,3.10
2022-09-11T09:55:40.467Z,2.10
2022-09-11T09:58:09.864Z,2.07
2022-09-11T10:00:39.650Z,2.13
2022-09-11T10:03:22.176Z,2.20
2022-09-11T10:05:51.411Z,2.17
2022-09-11T10:08:33.459Z,2.00
2022-09-11T10:11:08.505Z,3.90
2022-09-11T10:13:40.461Z,2.87
2022-09-11T10:16:21.130Z,2.27
2022-09-11T10:18:47.705Z,2.13
2022-09-11T10:21:23.016Z,2.07
2022-09-11T10:23:56.945Z,2.00
2022-09-11T10:26:38.252Z,1.97
2022-09-11T10:29:15.542Z,3.00
2022-09-11T10:31:49.887Z,2.07
2022-09-11T10:34:22.436Z,1.83
2022-09-11T10:36:53.067Z,2.10
2022-09-11T10:39:21.229Z,2.30
2022-09-11T10:41:51.633Z,2.03
2022-09-11T10:44:18.539Z,2.10
2022-09-11T10:46:46.102Z,1.90
2022-09-11T10:49:23.455Z,2.00
2022-09-11T10:52:19.254Z,2.00
2022-09-11T10:54:54.998Z,1.67
2022-09-11T10:57:28.356Z,2.07
2022-09-11T10:59:57.953Z,1.67
2022-09-11T11:02:31.790Z,1.37
2022-09-11T11:05:03.166Z,1.57
2022-09-11T11:08:00.793Z,1.40
2022-09-11T11:10:40.639Z,1.30
2022-09-11T11:13:13.422Z,1.67
2022-09-11T11:16:20.273Z,2.90
2022-09-11T11:19:11.565Z,1.60
2022-09-11T11:21:56.954Z,2.07
2022-09-11T11:24:38.697Z,2.03
2022-09-11T11:27:17.210Z,1.97
2022-09-11T11:29:50.712Z,1.47
2022-09-11T11:32:39.467Z,1.50
2022-09-11T11:35:23.367Z,3.07
2022-09-11T11:37:53.908Z,1.30
2022-09-11T11:40:40.792Z,1.37
2022-09-11T11:43:11.778Z,1.10
2022-09-11T11:45:41.506Z,1.20
2022-09-11T11:48:25.422Z,1.10
2022-09-11T11:51:00.961Z,1.40
2022-09-11T11:53:40.573Z,1.40
2022-09-11T11:56:28.858Z,1.30
2022-09-11T11:59:14.097Z,1.27
2022-09-11T12:02:03.218Z,1.53
2022-09-11T12:04:47.001Z,1.10
2022-09-11T12:07:15.406Z,1.40
2022-09-11T12:09:47.336Z,1.07
2022-09-11T12:12:16.557Z,1.27
2022-09-11T12:14:51.587Z,0.93
2022-09-11T12:17:44.727Z,0.90
2022-09-11T12:20:29.936Z,0.90
2022-09-11T12:23:04.399Z,1.10
2022-09-11T12:25:35.507Z,0.80
2022-09-11T12:28:22.653Z,1.10
2022-09-11T12:30:58.839Z,1.30
2022-09-11T12:33:40.805Z,1.10
2022-09-11T12:36:18.886Z,1.43
2022-09-11T12:38:49.239Z,0.90
2022-09-11T12:41:22.907Z,1.00
2022-09-11T12:43:50.298Z,1.40
2022-09-11T12:46:23.179Z,1.10
2022-09-11T12:49:18.089Z,0.90
2022-09-11T12:51:49.962Z,1.20
2022-09-11T12:54:24.942Z,0.93
2022-09-11T12:57:02.502Z,1.07
2022-09-11T12:59:39.322Z,1.00
2022-09-11T13:02:25.750Z,0.80
2022-09-11T13:04:53.775Z,0.83
2022-09-11T13:07:46.658Z,0.77
2022-09-11T13:10:37.139Z,0.70
2022-09-11T13:13:35.799Z,0.97
2022-09-11T13:16:19.292Z,1.07
2022-09-11T13:18:46.066Z,0.90
2022-09-11T13:21:15.685Z,0.97
2022-09-11T13:23:43.165Z,1.00
2022-09-11T13:26:18.249Z,0.80
2022-09-11T13:28:47.919Z,0.73
2022-09-11T13:31:19.633Z,1.00
2022-09-11T13:33:53.074Z,0.80
2022-09-11T13:36:24.218Z,0.80
2022-09-11T13:38:56.161Z,1.13
2022-09-11T13:41:32.696Z,1.10
2022-09-11T13:44:01.291Z,0.80
2022-09-11T13:46:31.682Z,0.90
2022-09-11T13:49:10.939Z,0.90
2022-09-11T13:51:43.673Z,0.90
2022-09-11T13:54:32.948Z,0.93
2022-09-11T13:57:03.124Z,1.00
2022-09-11T13:59:50.398Z,0.93
2022-09-11T14:02:24.423Z,1.20
2022-09-11T14:04:53.018Z,0.70
2022-09-11T14:07:26.472Z,0.90
2022-09-11T14:10:18.234Z,1.10
2022-09-11T14:12:58.733Z,0.90
2022-09-11T14:15:33.794Z,0.90
2022-09-11T14:18:06.730Z,0.93
2022-09-11T14:20:33.566Z,0.93
2022-09-11T14:23:05.730Z,0.90
2022-09-11T14:25:34.110Z,1.00
2022-09-11T14:28:00.752Z,0.90
2022-09-11T14:30:28.249Z,0.70
2022-09-11T14:33:16.922Z,0.73
2022-09-11T14:35:45.958Z,0.97
2022-09-11T14:38:14.446Z,0.80
2022-09-11T14:40:50.237Z,0.80
2022-09-11T14:43:24.317Z,1.00
2022-09-11T14:45:51.506Z,0.90
2022-09-11T14:48:18.862Z,0.87
2022-09-11T14:50:46.585Z,1.50
2022-09-11T14:53:18.812Z,1.30
2022-09-11T14:55:45.398Z,1.30
2022-09-11T14:58:11.930Z,1.07
2022-09-11T15:00:38.490Z,1.20
2022-09-11T15:03:05.073Z,1.00
2022-09-11T15:05:32.791Z,1.27
2022-09-11T15:08:00.465Z,1.20
2022-09-11T15:10:27.514Z,1.10
2022-09-11T15:12:56.043Z,0.80
2022-09-11T15:15:22.784Z,1.00
2022-09-11T15:17:49.481Z,1.10
2022-09-11T15:20:16.462Z,1.20
2022-09-11T15:22:43.222Z,0.90
2022-09-11T15:25:10.166Z,1.27
2022-09-11T15:27:36.825Z,1.00
2022-09-11T15:30:04.651Z,1.17
2022-09-11T15:32:31.514Z,1.17
2022-09-11T15:34:58.287Z,1.00
2022-09-11T15:37:25.289Z,1.10
2022-09-11T15:39:51.819Z,1.20
2022-09-11T15:42:18.939Z,1.30
2022-09-11T15:44:46.277Z,1.37
2022-09-11T15:47:13.738Z,1.10
2022-09-11T15:49:42.388Z,1.07
2022-09-11T15:52:08.939Z,1.10
2022-09-11T15:54:35.693Z,1.00
2022-09-11T15:57:02.308Z,1.00
2022-09-11T15:59:28.860Z,1.00
2022-09-11T16:01:55.752Z,0.70
2022-09-11T16:04:27.546Z,1.30
2022-09-11T16:06:55.238Z,0.97
2022-09-11T16:09:26.826Z,1.03
2022-09-11T16:11:54.741Z,1.10
2022-09-11T16:14:27.355Z,1.10
2022-09-11T16:16:56.071Z,0.87
2022-09-11T16:19:27.539Z,1.20
2022-09-11T16:21:56.562Z,1.07
2022-09-11T16:24:25.568Z,1.03
2022-09-11T16:26:55.829Z,0.90
2022-09-11T16:29:24.039Z,1.10
2022-09-11T16:31:50.651Z,0.83
2022-09-11T16:34:20.159Z,1.10
2022-09-11T16:36:46.893Z,0.93
2022-09-11T16:39:16.213Z,0.80
2022-09-11T16:41:43.421Z,0.90
2022-09-11T16:44:13.686Z,0.90
2022-09-11T16:46:42.334Z,0.93
2022-09-11T16:49:15.462Z,1.10
2022-09-11T16:51:43.031Z,1.10
2022-09-11T16:54:09.582Z,0.90
2022-09-11T16:56:36.208Z,0.90
2022-09-11T16:59:03.189Z,1.00
2022-09-11T17:01:29.743Z,1.00
2022-09-11T17:03:57.817Z,1.00
2022-09-11T17:06:29.980Z,0.73
2022-09-11T17:08:59.751Z,0.80
2022-09-11T17:11:26.782Z,1.00
2022-09-11T17:13:53.573Z,0.83
2022-09-11T17:16:23.784Z,0.80
2022-09-11T17:18:53.968Z,1.00
2022-09-11T17:21:24.166Z,1.00
2022-09-11T17:23:52.600Z,0.90
2022-09-11T17:26:19.365Z,1.20
2022-09-11T17:28:47.778Z,0.90
2022-09-11T17:31:15.973Z,0.90
2022-09-11T17:33:43.650Z,0.90
2022-09-11T17:36:12.329Z,1.00
2022-09-11T17:38:40.447Z,1.07
2022-09-11T17:41:09.290Z,1.10
2022-09-11T17:43:37.427Z,1.23
2022-09-11T17:46:12.162Z,0.93
2022-09-11T17:48:39.784Z,1.17
2022-09-11T17:51:12.540Z,1.20
2022-09-11T17:53:41.562Z,1.07
2022-09-11T17:56:11.171Z,1.13
2022-09-11T17:58:38.398Z,1.27
2022-09-11T18:01:06.262Z,1.23
2022-09-11T18:03:34.467Z,1.50
2022-09-11T18:06:03.185Z,1.63
2022-09-11T18:08:33.315Z,1.40
2022-09-11T18:11:01.238Z,1.53
2022-09-11T18:13:31.980Z,1.70
2022-09-11T18:15:58.668Z,1.53
2022-09-11T18:18:25.646Z,1.80
2022-09-11T18:20:56.422Z,1.77
2022-09-11T18:23:24.209Z,1.80
2022-09-11T18:25:51.609Z,2.00
2022-09-11T18:28:20.050Z,1.80
2022-09-11T18:30:47.545Z,1.90
2022-09-11T18:33:16.773Z,2.57
2022-09-11T18:35:44.254Z,1.97
2022-09-11T18:38:11.002Z,1.77
2022-09-11T18:40:37.488Z,2.10
2022-09-11T18:43:06.342Z,2.00
2022-09-11T18:45:35.283Z,1.60
2022-09-11T18:48:02.355Z,1.90
2022-09-11T18:50:28.952Z,2.00
2022-09-11T18:52:57.078Z,1.87
2022-09-11T18:55:24.365Z,2.20
2022-09-11T18:57:51.680Z,2.00
2022-09-11T19:00:19.376Z,2.20
2022-09-11T19:02:50.364Z,2.70
2022-09-11T19:05:17.689Z,2.40
2022-09-11T19:07:47.564Z,2.37
2022-09-11T19:10:16.137Z,2.47
2022-09-11T19:12:43.250Z,2.70
2022-09-11T19:15:11.354Z,2.43
2022-09-11T19:17:38.256Z,2.43
2022-09-11T19:20:08.419Z,2.67
2022-09-11T19:22:35.625Z,3.00
2022-09-11T19:25:02.635Z,2.80
2022-09-11T19:27:31.705Z,2.70
2022-09-11T19:30:00.398Z,2.80
2022-09-11T19:32:28.897Z,2.70
2022-09-11T19:34:56.082Z,2.80
2022-09-11T19:37:23.757Z,3.03
2022-09-11T19:39:54.074Z,3.00
2022-09-11T19:42:20.973Z,3.10
2022-09-11T19:44:48.112Z,2.87
2022-09-11T19:47:14.696Z,2.80
2022-09-11T19:49:41.202Z,2.80
2022-09-11T19:52:08.278Z,2.97
2022-09-11T19:54:35.438Z,3.73
2022-09-11T19:57:02.605Z,3.37
2022-09-11T19:59:29.265Z,4.10
2022-09-11T20:01:55.890Z,3.23
2022-09-11T20:04:22.712Z,3.40
2022-09-11T20:09:31.905Z,3.37
2022-09-11T20:12:00.615Z,3.80
2022-09-11T20:14:27.435Z,3.90
2022-09-11T20:16:53.967Z,3.60
2022-09-11T20:19:20.624Z,3.80
2022-09-11T20:21:47.167Z,4.30
2022-09-11T20:24:14.958Z,4.20
2022-09-11T20:26:41.492Z,4.10
2022-09-11T20:29:12.553Z,4.53
2022-09-11T20:31:46.858Z,5.80
2022-09-11T20:34:18.560Z,5.30
2022-09-11T20:36:46.259Z,6.07
2022-09-11T20:39:16.046Z,5.87
2022-09-11T20:41:42.913Z,6.13
2022-09-11T20:44:09.960Z,6.13
2022-09-11T20:46:36.626Z,6.17
2022-09-11T20:49:04.446Z,6.10
2022-09-11T20:51:32.559Z,6.53
2022-09-11T20:54:00.596Z,5.73
2022-09-11T20:56:28.073Z,5.50
2022-09-11T20:58:54.879Z,5.93
2022-09-11T21:01:23.163Z,6.43
2022-09-11T21:03:57.143Z,6.37
2022-09-11T21:06:27.515Z,6.40
2022-09-11T21:08:55.973Z,5.87
2022-09-11T21:11:23.422Z,6.10
2022-09-11T21:13:50.820Z,6.23
2022-09-11T21:16:19.915Z,6.10
2022-09-11T21:18:52.134Z,6.40
2022-09-11T21:21:19.654Z,5.50
2022-09-11T21:23:46.578Z,6.60
2022-09-11T21:26:15.918Z,6.47
2022-09-11T21:28:42.947Z,6.30
2022-09-11T21:31:13.429Z,6.43
2022-09-11T21:33:41.338Z,6.10
2022-09-11T21:36:08.008Z,7.07
2022-09-11T21:38:34.570Z,7.13
2022-09-11T21:41:04.487Z,7.53
2022-09-11T21:43:31.623Z,7.23
2022-09-11T21:45:58.732Z,7.10
2022-09-11T21:48:25.685Z,6.43
2022-09-11T21:50:52.628Z,7.53
2022-09-11T21:53:19.929Z,7.00
2022-09-11T21:55:48.676Z,7.10
2022-09-11T21:58:17.670Z,7.37
2022-09-11T22:00:44.396Z,6.57
2022-09-11T22:03:12.315Z,7.13
2022-09-11T22:05:44.206Z,6.80
2022-09-11T22:08:12.314Z,6.47
2022-09-11T22:10:48.159Z,6.97
2022-09-11T22:13:15.471Z,6.83
2022-09-11T22:15:43.298Z,7.20
2022-09-11T22:18:09.974Z,6.73
2022-09-11T22:20:37.689Z,6.00
2022-09-11T22:23:04.409Z,6.67
2022-09-11T22:25:30.964Z,5.97
2022-09-11T22:27:57.677Z,6.57
2022-09-11T22:30:24.224Z,6.50
2022-09-11T22:32:51.274Z,6.47
2022-09-11T22:35:17.826Z,6.77
2022-09-11T22:37:44.336Z,6.80
2022-09-11T22:40:10.973Z,6.20
2022-09-11T22:42:37.551Z,6.13
2022-09-11T22:45:04.409Z,6.20
2022-09-11T22:47:30.908Z,6.03
2022-09-11T22:49:57.427Z,6.50
2022-09-11T22:52:24.071Z,6.40
2022-09-11T22:54:50.640Z,6.20
2022-09-11T22:57:17.245Z,6.40
2022-09-11T22:59:45.361Z,6.60
2022-09-11T23:02:13.488Z,6.60
2022-09-11T23:04:40.082Z,5.77
2022-09-11T23:07:15.971Z,6.10
2022-09-11T23:09:43.855Z,6.27
2022-09-11T23:12:10.758Z,6.00
2022-09-11T23:14:37.367Z,6.03
2022-09-11T23:17:04.034Z,5.80
2022-09-11T23:19:31.571Z,6.23
2022-09-11T23:21:58.097Z,6.87
2022-09-11T23:24:24.599Z,7.10
2022-09-11T23:26:51.096Z,6.10
2022-09-11T23:29:17.655Z,6.60
2022-09-11T23:31:45.091Z,7.23
2022-09-11T23:34:16.077Z,7.33
2022-09-11T23:36:43.417Z,7.03
2022-09-11T23:39:10.140Z,7.20
2022-09-11T23:41:36.634Z,7.10
2022-09-11T23:44:03.957Z,6.77
2022-09-11T23:46:30.504Z,7.17
2022-09-11T23:48:57.064Z,6.67
2022-09-11T23:51:23.982Z,6.90
2022-09-11T23:53:51.806Z,7.00
2022-09-11T23:56:19.108Z,8.73
2022-09-11T23:58:45.745Z,8.10
